sensor_id;sensor_type;location;lat;lon;timestamp;P1;durP1;ratioP1;P2;durP2;ratioP2
32593;SDS011;19018;49.046;9.140;2023-01-10T00:01:38;0.30;;;0.20;;
32593;SDS011;19018;49.046;9.140;2023-01-10T00:04:06;0.15;;;0.15;;
32593;SDS011;19018;49.046;9.140;2023-01-10T00:06:56;0.40;;;0.30;;
32593;SDS011;19018;49.046;9.140;2023-01-10T00:09:22;0.10;;;0.10;;
32593;SDS011;19018;49.046;9.140;2023-01-10T00:11:49;0.57;;;0.30;;
32593;SDS011;19018;49.046;9.140;2023-01-10T00:14:33;0.25;;;0.25;;
32593;SDS011;19018;49.046;9.140;2023-01-10T00:17:00;0.30;;;0.20;;
32593;SDS011;19018;49.046;9.140;2023-01-10T00:19:26;0.15;;;0.15;;
32593;SDS011;19018;49.046;9.140;2023-01-10T00:21:52;0.28;;;0.15;;
32593;SDS011;19018;49.046;9.140;2023-01-10T00:24:19;0.20;;;0.10;;
32593;SDS011;19018;49.046;9.140;2023-01-10T00:26:48;0.90;;;0.43;;
32593;SDS011;19018;49.046;9.140;2023-01-10T00:31:44;0.40;;;0.20;;
32593;SDS011;19018;49.046;9.140;2023-01-10T00:34:10;0.30;;;0.10;;
32593;SDS011;19018;49.046;9.140;2023-01-10T00:36:36;0.28;;;0.20;;
32593;SDS011;19018;49.046;9.140;2023-01-10T00:39:03;0.32;;;0.20;;
32593;SDS011;19018;49.046;9.140;2023-01-10T00:41:28;0.22;;;0.10;;
32593;SDS011;19018;49.046;9.140;2023-01-10T00:44:12;0.20;;;0.20;;
32593;SDS011;19018;49.046;9.140;2023-01-10T00:46:39;1.60;;;0.55;;
32593;SDS011;19018;49.046;9.140;2023-01-10T00:49:05;1.52;;;0.77;;
32593;SDS011;19018;49.046;9.140;2023-01-10T00:51:32;0.38;;;0.20;;
32593;SDS011;19018;49.046;9.140;2023-01-10T00:54:00;0.35;;;0.28;;
32593;SDS011;19018;49.046;9.140;2023-01-10T00:56:27;0.77;;;0.20;;
32593;SDS011;19018;49.046;9.140;2023-01-10T00:58:54;0.25;;;0.20;;
32593;SDS011;19018;49.046;9.140;2023-01-10T01:01:20;0.30;;;0.30;;
32593;SDS011;19018;49.046;9.140;2023-01-10T01:03:46;0.47;;;0.13;;
32593;SDS011;19018;49.046;9.140;2023-01-10T01:06:12;0.32;;;0.30;;
32593;SDS011;19018;49.046;9.140;2023-01-10T01:08:39;0.10;;;0.10;;
32593;SDS011;19018;49.046;9.140;2023-01-10T01:11:06;1.65;;;0.40;;
32593;SDS011;19018;49.046;9.140;2023-01-10T01:13:32;0.50;;;0.28;;
32593;SDS011;19018;49.046;9.140;2023-01-10T01:15:59;0.45;;;0.17;;
32593;SDS011;19018;49.046;9.140;2023-01-10T01:18:25;0.75;;;0.28;;
32593;SDS011;19018;49.046;9.140;2023-01-10T01:20:52;0.17;;;0.10;;
32593;SDS011;19018;49.046;9.140;2023-01-10T01:23:20;0.82;;;0.38;;
32593;SDS011;19018;49.046;9.140;2023-01-10T01:25:50;0.35;;;0.30;;
32593;SDS011;19018;49.046;9.140;2023-01-10T01:28:17;0.43;;;0.30;;
32593;SDS011;19018;49.046;9.140;2023-01-10T01:30:46;0.40;;;0.28;;
32593;SDS011;19018;49.046;9.140;2023-01-10T01:33:33;0.63;;;0.10;;
32593;SDS011;19018;49.046;9.140;2023-01-10T01:36:01;0.15;;;0.15;;
32593;SDS011;19018;49.046;9.140;2023-01-10T01:38:27;0.35;;;0.10;;
32593;SDS011;19018;49.046;9.140;2023-01-10T01:40:57;0.70;;;0.60;;
32593;SDS011;19018;49.046;9.140;2023-01-10T01:43:25;1.15;;;0.30;;
32593;SDS011;19018;49.046;9.140;2023-01-10T01:47:07;1.23;;;0.43;;
32593;SDS011;19018;49.046;9.140;2023-01-10T01:49:39;0.55;;;0.30;;
32593;SDS011;19018;49.046;9.140;2023-01-10T01:52:24;0.20;;;0.15;;
32593;SDS011;19018;49.046;9.140;2023-01-10T01:55:07;0.20;;;0.20;;
32593;SDS011;19018;49.046;9.140;2023-01-10T01:58:02;0.40;;;0.30;;
32593;SDS011;19018;49.046;9.140;2023-01-10T02:01:48;0.15;;;0.15;;
32593;SDS011;19018;49.046;9.140;2023-01-10T02:04:50;0.20;;;0.20;;
32593;SDS011;19018;49.046;9.140;2023-01-10T02:08:05;0.20;;;0.15;;
32593;SDS011;19018;49.046;9.140;2023-01-10T02:11:16;0.20;;;0.17;;
32593;SDS011;19018;49.046;9.140;2023-01-10T02:14:56;0.38;;;0.10;;
32593;SDS011;19018;49.046;9.140;2023-01-10T02:17:24;0.50;;;0.10;;
32593;SDS011;19018;49.046;9.140;2023-01-10T02:20:19;0.50;;;0.15;;
32593;SDS011;19018;49.046;9.140;2023-01-10T02:37:26;0.40;;;0.10;;
32593;SDS011;19018;49.046;9.140;2023-01-10T02:40:23;0.60;;;0.30;;
32593;SDS011;19018;49.046;9.140;2023-01-10T02:43:16;0.20;;;0.15;;
32593;SDS011;19018;49.046;9.140;2023-01-10T02:46:13;0.20;;;0.20;;
32593;SDS011;19018;49.046;9.140;2023-01-10T02:48:45;0.15;;;0.10;;
32593;SDS011;19018;49.046;9.140;2023-01-10T02:51:18;0.55;;;0.20;;
32593;SDS011;19018;49.046;9.140;2023-01-10T02:56:33;0.20;;;0.20;;
32593;SDS011;19018;49.046;9.140;2023-01-10T03:08:00;0.40;;;0.15;;
32593;SDS011;19018;49.046;9.140;2023-01-10T03:11:04;0.65;;;0.25;;
32593;SDS011;19018;49.046;9.140;2023-01-10T03:16:04;1.80;;;0.40;;
32593;SDS011;19018;49.046;9.140;2023-01-10T03:19:48;0.30;;;0.30;;
32593;SDS011;19018;49.046;9.140;2023-01-10T03:22:58;0.25;;;0.20;;
32593;SDS011;19018;49.046;9.140;2023-01-10T03:25:46;0.63;;;0.30;;
32593;SDS011;19018;49.046;9.140;2023-01-10T03:28:27;1.10;;;0.40;;
32593;SDS011;19018;49.046;9.140;2023-01-10T03:31:03;0.40;;;0.32;;
32593;SDS011;19018;49.046;9.140;2023-01-10T03:33:57;0.65;;;0.30;;
32593;SDS011;19018;49.046;9.140;2023-01-10T03:37:11;1.05;;;0.38;;
32593;SDS011;19018;49.046;9.140;2023-01-10T03:42:18;0.30;;;0.20;;
32593;SDS011;19018;49.046;9.140;2023-01-10T03:45:13;0.70;;;0.40;;
32593;SDS011;19018;49.046;9.140;2023-01-10T03:47:47;1.13;;;0.30;;
32593;SDS011;19018;49.046;9.140;2023-01-10T03:50:17;0.32;;;0.32;;
32593;SDS011;19018;49.046;9.140;2023-01-10T03:52:58;0.77;;;0.25;;
32593;SDS011;19018;49.046;9.140;2023-01-10T03:55:28;0.85;;;0.22;;
32593;SDS011;19018;49.046;9.140;2023-01-10T03:58:51;0.75;;;0.50;;
32593;SDS011;19018;49.046;9.140;2023-01-10T04:01:22;0.32;;;0.22;;
32593;SDS011;19018;49.046;9.140;2023-01-10T04:03:50;0.75;;;0.20;;
32593;SDS011;19018;49.046;9.140;2023-01-10T04:06:17;3.03;;;0.68;;
32593;SDS011;19018;49.046;9.140;2023-01-10T04:08:44;0.65;;;0.60;;
32593;SDS011;19018;49.046;9.140;2023-01-10T04:11:10;0.45;;;0.40;;
32593;SDS011;19018;49.046;9.140;2023-01-10T04:13:37;1.38;;;0.80;;
32593;SDS011;19018;49.046;9.140;2023-01-10T04:16:07;0.73;;;0.45;;
32593;SDS011;19018;49.046;9.140;2023-01-10T04:18:33;6.43;;;2.17;;
32593;SDS011;19018;49.046;9.140;2023-01-10T04:21:01;1.48;;;0.55;;
32593;SDS011;19018;49.046;9.140;2023-01-10T04:23:32;0.43;;;0.43;;
32593;SDS011;19018;49.046;9.140;2023-01-10T04:26:00;0.30;;;0.30;;
32593;SDS011;19018;49.046;9.140;2023-01-10T04:28:27;0.95;;;0.70;;
32593;SDS011;19018;49.046;9.140;2023-01-10T04:30:55;0.80;;;0.50;;
32593;SDS011;19018;49.046;9.140;2023-01-10T04:33:44;1.63;;;0.60;;
32593;SDS011;19018;49.046;9.140;2023-01-10T04:36:14;3.35;;;0.95;;
32593;SDS011;19018;49.046;9.140;2023-01-10T04:38:41;1.05;;;0.70;;
32593;SDS011;19018;49.046;9.140;2023-01-10T04:41:10;1.08;;;0.50;;
32593;SDS011;19018;49.046;9.140;2023-01-10T04:44:32;1.05;;;0.73;;
32593;SDS011;19018;49.046;9.140;2023-01-10T04:47:07;2.60;;;0.52;;
32593;SDS011;19018;49.046;9.140;2023-01-10T04:49:33;5.20;;;1.63;;
32593;SDS011;19018;49.046;9.140;2023-01-10T04:51:59;1.45;;;0.70;;
32593;SDS011;19018;49.046;9.140;2023-01-10T04:54:58;1.02;;;0.52;;
32593;SDS011;19018;49.046;9.140;2023-01-10T04:57:52;1.15;;;0.68;;
32593;SDS011;19018;49.046;9.140;2023-01-10T05:00:19;1.92;;;0.68;;
32593;SDS011;19018;49.046;9.140;2023-01-10T05:02:56;1.08;;;0.60;;
32593;SDS011;19018;49.046;9.140;2023-01-10T05:05:44;0.93;;;0.60;;
32593;SDS011;19018;49.046;9.140;2023-01-10T05:08:11;0.82;;;0.82;;
32593;SDS011;19018;49.046;9.140;2023-01-10T05:10:37;0.63;;;0.55;;
32593;SDS011;19018;49.046;9.140;2023-01-10T05:13:04;1.63;;;0.95;;
32593;SDS011;19018;49.046;9.140;2023-01-10T05:15:30;1.48;;;0.60;;
32593;SDS011;19018;49.046;9.140;2023-01-10T05:17:57;1.65;;;0.90;;
32593;SDS011;19018;49.046;9.140;2023-01-10T05:20:23;1.83;;;0.70;;
32593;SDS011;19018;49.046;9.140;2023-01-10T05:22:50;1.13;;;0.60;;
32593;SDS011;19018;49.046;9.140;2023-01-10T05:25:16;3.53;;;0.85;;
32593;SDS011;19018;49.046;9.140;2023-01-10T05:27:43;1.05;;;0.60;;
32593;SDS011;19018;49.046;9.140;2023-01-10T05:30:10;1.58;;;0.80;;
32593;SDS011;19018;49.046;9.140;2023-01-10T05:32:57;3.88;;;0.93;;
32593;SDS011;19018;49.046;9.140;2023-01-10T05:35:25;2.22;;;0.90;;
32593;SDS011;19018;49.046;9.140;2023-01-10T05:37:52;2.10;;;1.00;;
32593;SDS011;19018;49.046;9.140;2023-01-10T05:40:22;2.92;;;1.02;;
32593;SDS011;19018;49.046;9.140;2023-01-10T05:42:48;2.95;;;1.58;;
32593;SDS011;19018;49.046;9.140;2023-01-10T05:45:15;3.15;;;1.30;;
32593;SDS011;19018;49.046;9.140;2023-01-10T05:47:43;3.55;;;1.42;;
32593;SDS011;19018;49.046;9.140;2023-01-10T05:50:09;2.15;;;0.93;;
32593;SDS011;19018;49.046;9.140;2023-01-10T05:52:38;1.92;;;1.00;;
32593;SDS011;19018;49.046;9.140;2023-01-10T05:55:05;4.40;;;1.17;;
32593;SDS011;19018;49.046;9.140;2023-01-10T05:57:34;4.25;;;1.13;;
32593;SDS011;19018;49.046;9.140;2023-01-10T06:00:01;4.97;;;1.02;;
32593;SDS011;19018;49.046;9.140;2023-01-10T06:02:34;1.67;;;0.80;;
32593;SDS011;19018;49.046;9.140;2023-01-10T06:05:20;2.25;;;1.40;;
32593;SDS011;19018;49.046;9.140;2023-01-10T06:07:46;2.03;;;1.00;;
32593;SDS011;19018;49.046;9.140;2023-01-10T06:10:12;3.92;;;1.70;;
32593;SDS011;19018;49.046;9.140;2023-01-10T06:12:39;2.03;;;0.90;;
32593;SDS011;19018;49.046;9.140;2023-01-10T06:15:05;2.08;;;0.95;;
32593;SDS011;19018;49.046;9.140;2023-01-10T06:17:32;2.58;;;1.10;;
32593;SDS011;19018;49.046;9.140;2023-01-10T06:19:58;2.75;;;1.30;;
32593;SDS011;19018;49.046;9.140;2023-01-10T06:22:24;2.42;;;1.17;;
32593;SDS011;19018;49.046;9.140;2023-01-10T06:24:52;2.92;;;1.05;;
32593;SDS011;19018;49.046;9.140;2023-01-10T06:27:19;1.63;;;0.80;;
32593;SDS011;19018;49.046;9.140;2023-01-10T06:29:45;2.33;;;1.42;;
32593;SDS011;19018;49.046;9.140;2023-01-10T06:32:11;4.80;;;1.17;;
32593;SDS011;19018;49.046;9.140;2023-01-10T06:34:37;1.92;;;1.15;;
32593;SDS011;19018;49.046;9.140;2023-01-10T06:37:03;3.25;;;1.10;;
32593;SDS011;19018;49.046;9.140;2023-01-10T06:39:30;2.15;;;1.42;;
32593;SDS011;19018;49.046;9.140;2023-01-10T06:41:56;2.03;;;1.20;;
32593;SDS011;19018;49.046;9.140;2023-01-10T06:44:22;4.03;;;1.67;;
32593;SDS011;19018;49.046;9.140;2023-01-10T06:46:48;1.95;;;1.10;;
32593;SDS011;19018;49.046;9.140;2023-01-10T06:49:14;2.72;;;0.88;;
32593;SDS011;19018;49.046;9.140;2023-01-10T06:51:40;1.40;;;0.90;;
32593;SDS011;19018;49.046;9.140;2023-01-10T06:56:49;3.28;;;0.75;;
32593;SDS011;19018;49.046;9.140;2023-01-10T06:59:16;2.58;;;1.27;;
32593;SDS011;19018;49.046;9.140;2023-01-10T07:01:45;1.83;;;1.15;;
32593;SDS011;19018;49.046;9.140;2023-01-10T07:04:11;2.20;;;1.05;;
32593;SDS011;19018;49.046;9.140;2023-01-10T07:06:37;2.90;;;0.60;;
32593;SDS011;19018;49.046;9.140;2023-01-10T07:09:03;1.73;;;0.82;;
32593;SDS011;19018;49.046;9.140;2023-01-10T07:11:30;1.70;;;1.13;;
32593;SDS011;19018;49.046;9.140;2023-01-10T07:13:58;2.42;;;1.33;;
32593;SDS011;19018;49.046;9.140;2023-01-10T07:16:45;0.90;;;0.85;;
32593;SDS011;19018;49.046;9.140;2023-01-10T07:19:11;2.70;;;1.23;;
32593;SDS011;19018;49.046;9.140;2023-01-10T07:21:44;1.50;;;1.00;;
32593;SDS011;19018;49.046;9.140;2023-01-10T07:24:15;2.22;;;1.13;;
32593;SDS011;19018;49.046;9.140;2023-01-10T07:26:41;1.92;;;1.00;;
32593;SDS011;19018;49.046;9.140;2023-01-10T07:29:09;1.40;;;0.90;;
32593;SDS011;19018;49.046;9.140;2023-01-10T07:31:55;2.90;;;1.27;;
32593;SDS011;19018;49.046;9.140;2023-01-10T07:34:50;1.85;;;0.90;;
32593;SDS011;19018;49.046;9.140;2023-01-10T07:37:16;2.92;;;0.85;;
32593;SDS011;19018;49.046;9.140;2023-01-10T07:39:43;2.25;;;1.10;;
32593;SDS011;19018;49.046;9.140;2023-01-10T07:42:09;2.78;;;1.17;;
32593;SDS011;19018;49.046;9.140;2023-01-10T07:44:35;2.10;;;0.75;;
32593;SDS011;19018;49.046;9.140;2023-01-10T07:47:02;2.17;;;1.02;;
32593;SDS011;19018;49.046;9.140;2023-01-10T07:49:29;2.15;;;1.10;;
32593;SDS011;19018;49.046;9.140;2023-01-10T07:51:56;1.45;;;1.02;;
32593;SDS011;19018;49.046;9.140;2023-01-10T07:54:22;2.53;;;1.30;;
32593;SDS011;19018;49.046;9.140;2023-01-10T07:56:49;2.83;;;1.40;;
32593;SDS011;19018;49.046;9.140;2023-01-10T07:59:16;2.90;;;1.00;;
32593;SDS011;19018;49.046;9.140;2023-01-10T08:02:03;2.15;;;1.00;;
32593;SDS011;19018;49.046;9.140;2023-01-10T08:04:51;3.67;;;1.88;;
32593;SDS011;19018;49.046;9.140;2023-01-10T08:07:35;3.20;;;1.50;;
32593;SDS011;19018;49.046;9.140;2023-01-10T08:10:43;4.07;;;1.55;;
32593;SDS011;19018;49.046;9.140;2023-01-10T08:13:12;2.85;;;1.20;;
32593;SDS011;19018;49.046;9.140;2023-01-10T08:15:58;2.35;;;1.02;;
32593;SDS011;19018;49.046;9.140;2023-01-10T08:18:25;2.85;;;1.10;;
32593;SDS011;19018;49.046;9.140;2023-01-10T08:20:53;3.47;;;1.30;;
32593;SDS011;19018;49.046;9.140;2023-01-10T08:23:21;1.77;;;0.98;;
32593;SDS011;19018;49.046;9.140;2023-01-10T08:26:09;1.90;;;1.23;;
32593;SDS011;19018;49.046;9.140;2023-01-10T08:47:38;3.20;;;1.50;;
32593;SDS011;19018;49.046;9.140;2023-01-10T08:50:17;4.43;;;1.63;;
32593;SDS011;19018;49.046;9.140;2023-01-10T08:52:43;3.13;;;1.20;;
32593;SDS011;19018;49.046;9.140;2023-01-10T08:55:31;7.53;;;2.58;;
32593;SDS011;19018;49.046;9.140;2023-01-10T08:58:20;5.07;;;1.65;;
32593;SDS011;19018;49.046;9.140;2023-01-10T09:00:46;2.65;;;1.30;;
32593;SDS011;19018;49.046;9.140;2023-01-10T09:03:13;4.45;;;1.17;;
32593;SDS011;19018;49.046;9.140;2023-01-10T09:05:39;3.28;;;1.48;;
32593;SDS011;19018;49.046;9.140;2023-01-10T09:08:06;3.85;;;1.45;;
32593;SDS011;19018;49.046;9.140;2023-01-10T09:10:33;4.50;;;1.52;;
32593;SDS011;19018;49.046;9.140;2023-01-10T09:13:01;7.82;;;2.08;;
32593;SDS011;19018;49.046;9.140;2023-01-10T09:15:32;2.58;;;1.58;;
32593;SDS011;19018;49.046;9.140;2023-01-10T09:18:05;2.90;;;1.30;;
32593;SDS011;19018;49.046;9.140;2023-01-10T09:20:40;4.22;;;1.80;;
32593;SDS011;19018;49.046;9.140;2023-01-10T09:23:11;2.88;;;1.20;;
32593;SDS011;19018;49.046;9.140;2023-01-10T09:25:43;4.30;;;1.25;;
32593;SDS011;19018;49.046;9.140;2023-01-10T09:28:23;2.40;;;1.40;;
32593;SDS011;19018;49.046;9.140;2023-01-10T09:30:49;5.68;;;1.45;;
32593;SDS011;19018;49.046;9.140;2023-01-10T09:33:15;3.58;;;1.58;;
32593;SDS011;19018;49.046;9.140;2023-01-10T09:35:43;2.83;;;1.38;;
32593;SDS011;19018;49.046;9.140;2023-01-10T09:38:10;3.90;;;1.42;;
32593;SDS011;19018;49.046;9.140;2023-01-10T09:41:38;3.95;;;1.40;;
32593;SDS011;19018;49.046;9.140;2023-01-10T09:53:23;3.22;;;1.40;;
32593;SDS011;19018;49.046;9.140;2023-01-10T09:55:58;2.33;;;1.40;;
32593;SDS011;19018;49.046;9.140;2023-01-10T09:58:26;3.70;;;1.88;;
32593;SDS011;19018;49.046;9.140;2023-01-10T10:06:26;5.82;;;2.65;;
32593;SDS011;19018;49.046;9.140;2023-01-10T10:08:52;4.10;;;1.75;;
32593;SDS011;19018;49.046;9.140;2023-01-10T10:19:35;5.85;;;2.40;;
32593;SDS011;19018;49.046;9.140;2023-01-10T10:35:38;3.00;;;2.08;;
32593;SDS011;19018;49.046;9.140;2023-01-10T10:38:27;4.10;;;1.80;;
32593;SDS011;19018;49.046;9.140;2023-01-10T10:40:55;3.17;;;1.92;;
32593;SDS011;19018;49.046;9.140;2023-01-10T10:43:28;2.53;;;1.20;;
32593;SDS011;19018;49.046;9.140;2023-01-10T10:46:01;5.35;;;2.78;;
32593;SDS011;19018;49.046;9.140;2023-01-10T10:48:38;2.90;;;1.58;;
32593;SDS011;19018;49.046;9.140;2023-01-10T10:51:36;3.70;;;1.42;;
32593;SDS011;19018;49.046;9.140;2023-01-10T10:54:25;1.33;;;0.80;;
32593;SDS011;19018;49.046;9.140;2023-01-10T10:57:17;2.22;;;0.90;;
32593;SDS011;19018;49.046;9.140;2023-01-10T10:59:47;3.28;;;1.52;;
32593;SDS011;19018;49.046;9.140;2023-01-10T11:05:01;2.25;;;1.50;;
32593;SDS011;19018;49.046;9.140;2023-01-10T11:07:50;3.05;;;1.90;;
32593;SDS011;19018;49.046;9.140;2023-01-10T11:15:00;1.25;;;0.70;;
32593;SDS011;19018;49.046;9.140;2023-01-10T11:17:47;2.00;;;1.50;;
32593;SDS011;19018;49.046;9.140;2023-01-10T11:21:18;3.13;;;0.90;;
32593;SDS011;19018;49.046;9.140;2023-01-10T11:24:32;3.30;;;1.52;;
32593;SDS011;19018;49.046;9.140;2023-01-10T11:27:59;2.22;;;1.23;;
32593;SDS011;19018;49.046;9.140;2023-01-10T11:31:04;2.92;;;1.05;;
32593;SDS011;19018;49.046;9.140;2023-01-10T11:33:55;2.63;;;1.00;;
32593;SDS011;19018;49.046;9.140;2023-01-10T11:51:27;1.73;;;0.90;;
32593;SDS011;19018;49.046;9.140;2023-01-10T11:54:52;1.98;;;0.40;;
32593;SDS011;19018;49.046;9.140;2023-01-10T11:58:09;1.02;;;0.60;;
32593;SDS011;19018;49.046;9.140;2023-01-10T12:00:40;1.40;;;0.85;;
32593;SDS011;19018;49.046;9.140;2023-01-10T12:03:20;3.33;;;0.70;;
32593;SDS011;19018;49.046;9.140;2023-01-10T12:06:03;2.50;;;0.65;;
32593;SDS011;19018;49.046;9.140;2023-01-10T12:08:35;1.17;;;0.63;;
32593;SDS011;19018;49.046;9.140;2023-01-10T12:13:45;2.50;;;1.00;;
32593;SDS011;19018;49.046;9.140;2023-01-10T12:16:23;2.55;;;0.90;;
32593;SDS011;19018;49.046;9.140;2023-01-10T12:19:09;1.95;;;1.00;;
32593;SDS011;19018;49.046;9.140;2023-01-10T12:21:40;1.05;;;0.93;;
32593;SDS011;19018;49.046;9.140;2023-01-10T12:24:27;4.15;;;1.05;;
32593;SDS011;19018;49.046;9.140;2023-01-10T12:26:58;2.25;;;1.10;;
32593;SDS011;19018;49.046;9.140;2023-01-10T12:29:33;4.53;;;1.30;;
32593;SDS011;19018;49.046;9.140;2023-01-10T12:32:06;1.42;;;1.00;;
32593;SDS011;19018;49.046;9.140;2023-01-10T12:34:46;2.47;;;0.70;;
32593;SDS011;19018;49.046;9.140;2023-01-10T12:40:18;2.45;;;1.15;;
32593;SDS011;19018;49.046;9.140;2023-01-10T12:43:12;2.65;;;0.80;;
32593;SDS011;19018;49.046;9.140;2023-01-10T12:51:05;2.53;;;1.00;;
32593;SDS011;19018;49.046;9.140;2023-01-10T12:53:48;1.70;;;0.65;;
32593;SDS011;19018;49.046;9.140;2023-01-10T12:56:18;1.52;;;0.65;;
32593;SDS011;19018;49.046;9.140;2023-01-10T12:58:48;2.55;;;1.17;;
32593;SDS011;19018;49.046;9.140;2023-01-10T13:01:20;3.40;;;1.50;;
32593;SDS011;19018;49.046;9.140;2023-01-10T13:03:52;2.90;;;1.13;;
32593;SDS011;19018;49.046;9.140;2023-01-10T13:06:29;3.40;;;0.75;;
32593;SDS011;19018;49.046;9.140;2023-01-10T13:09:47;1.50;;;0.80;;
32593;SDS011;19018;49.046;9.140;2023-01-10T13:16:03;1.92;;;1.17;;
32593;SDS011;19018;49.046;9.140;2023-01-10T13:22:11;2.40;;;1.20;;
32593;SDS011;19018;49.046;9.140;2023-01-10T13:24:54;3.40;;;1.40;;
32593;SDS011;19018;49.046;9.140;2023-01-10T13:27:44;3.17;;;1.10;;
32593;SDS011;19018;49.046;9.140;2023-01-10T13:30:27;1.02;;;0.70;;
32593;SDS011;19018;49.046;9.140;2023-01-10T13:44:13;4.35;;;1.40;;
32593;SDS011;19018;49.046;9.140;2023-01-10T13:46:48;2.45;;;1.40;;
32593;SDS011;19018;49.046;9.140;2023-01-10T13:52:50;2.90;;;1.00;;
32593;SDS011;19018;49.046;9.140;2023-01-10T13:56:37;1.90;;;0.93;;
32593;SDS011;19018;49.046;9.140;2023-01-10T13:59:58;2.30;;;1.02;;
32593;SDS011;19018;49.046;9.140;2023-01-10T14:02:51;1.27;;;0.70;;
32593;SDS011;19018;49.046;9.140;2023-01-10T14:09:50;0.88;;;0.63;;
32593;SDS011;19018;49.046;9.140;2023-01-10T14:32:40;1.02;;;0.50;;
32593;SDS011;19018;49.046;9.140;2023-01-10T14:35:08;4.47;;;1.10;;
32593;SDS011;19018;49.046;9.140;2023-01-10T14:37:39;1.55;;;0.70;;
32593;SDS011;19018;49.046;9.140;2023-01-10T14:42:48;1.85;;;0.77;;
32593;SDS011;19018;49.046;9.140;2023-01-10T14:45:27;2.80;;;0.70;;
32593;SDS011;19018;49.046;9.140;2023-01-10T14:48:16;2.65;;;1.15;;
32593;SDS011;19018;49.046;9.140;2023-01-10T14:51:06;1.47;;;0.47;;
32593;SDS011;19018;49.046;9.140;2023-01-10T14:53:33;0.50;;;0.30;;
32593;SDS011;19018;49.046;9.140;2023-01-10T14:55:59;1.13;;;1.00;;
32593;SDS011;19018;49.046;9.140;2023-01-10T14:58:25;3.08;;;0.50;;
32593;SDS011;19018;49.046;9.140;2023-01-10T15:00:52;2.03;;;0.90;;
32593;SDS011;19018;49.046;9.140;2023-01-10T15:03:20;3.22;;;0.60;;
32593;SDS011;19018;49.046;9.140;2023-01-10T15:05:49;1.02;;;0.63;;
32593;SDS011;19018;49.046;9.140;2023-01-10T15:08:24;4.97;;;0.90;;
32593;SDS011;19018;49.046;9.140;2023-01-10T15:10:59;2.03;;;0.90;;
32593;SDS011;19018;49.046;9.140;2023-01-10T15:13:30;1.02;;;0.80;;
32593;SDS011;19018;49.046;9.140;2023-01-10T15:16:00;1.02;;;0.77;;
32593;SDS011;19018;49.046;9.140;2023-01-10T15:18:40;3.15;;;0.98;;
32593;SDS011;19018;49.046;9.140;2023-01-10T15:23:36;1.35;;;1.00;;
32593;SDS011;19018;49.046;9.140;2023-01-10T15:26:05;1.35;;;0.73;;
32593;SDS011;19018;49.046;9.140;2023-01-10T15:28:34;2.00;;;1.00;;
32593;SDS011;19018;49.046;9.140;2023-01-10T15:31:04;2.13;;;0.73;;
32593;SDS011;19018;49.046;9.140;2023-01-10T15:33:31;1.65;;;0.90;;
32593;SDS011;19018;49.046;9.140;2023-01-10T15:36:09;1.45;;;0.95;;
32593;SDS011;19018;49.046;9.140;2023-01-10T15:38:41;1.42;;;0.90;;
32593;SDS011;19018;49.046;9.140;2023-01-10T15:41:09;1.17;;;0.95;;
32593;SDS011;19018;49.046;9.140;2023-01-10T15:43:44;1.23;;;0.63;;
32593;SDS011;19018;49.046;9.140;2023-01-10T15:46:20;1.80;;;0.68;;
32593;SDS011;19018;49.046;9.140;2023-01-10T15:51:27;1.13;;;0.52;;
32593;SDS011;19018;49.046;9.140;2023-01-10T15:56:51;1.08;;;0.47;;
32593;SDS011;19018;49.046;9.140;2023-01-10T15:59:46;1.80;;;0.68;;
32593;SDS011;19018;49.046;9.140;2023-01-10T16:02:34;1.23;;;0.60;;
32593;SDS011;19018;49.046;9.140;2023-01-10T16:08:50;1.90;;;0.55;;
32593;SDS011;19018;49.046;9.140;2023-01-10T16:13:42;2.08;;;1.35;;
32593;SDS011;19018;49.046;9.140;2023-01-10T16:16:12;1.45;;;0.98;;
32593;SDS011;19018;49.046;9.140;2023-01-10T16:18:41;2.75;;;1.35;;
32593;SDS011;19018;49.046;9.140;2023-01-10T16:21:09;1.05;;;0.70;;
32593;SDS011;19018;49.046;9.140;2023-01-10T16:23:41;2.35;;;0.80;;
32593;SDS011;19018;49.046;9.140;2023-01-10T16:26:10;2.30;;;0.80;;
32593;SDS011;19018;49.046;9.140;2023-01-10T16:28:36;4.88;;;1.23;;
32593;SDS011;19018;49.046;9.140;2023-01-10T16:31:03;1.55;;;0.98;;
32593;SDS011;19018;49.046;9.140;2023-01-10T16:33:30;1.85;;;1.13;;
32593;SDS011;19018;49.046;9.140;2023-01-10T16:35:56;1.60;;;1.15;;
32593;SDS011;19018;49.046;9.140;2023-01-10T16:38:23;2.80;;;0.95;;
32593;SDS011;19018;49.046;9.140;2023-01-10T16:40:52;2.63;;;1.17;;
32593;SDS011;19018;49.046;9.140;2023-01-10T16:43:27;2.65;;;0.98;;
32593;SDS011;19018;49.046;9.140;2023-01-10T16:46:07;1.15;;;0.65;;
32593;SDS011;19018;49.046;9.140;2023-01-10T16:49:01;0.70;;;0.70;;
32593;SDS011;19018;49.046;9.140;2023-01-10T16:51:31;1.23;;;0.80;;
32593;SDS011;19018;49.046;9.140;2023-01-10T16:54:19;1.17;;;0.90;;
32593;SDS011;19018;49.046;9.140;2023-01-10T16:56:47;3.15;;;1.35;;
32593;SDS011;19018;49.046;9.140;2023-01-10T16:59:20;2.47;;;1.50;;
32593;SDS011;19018;49.046;9.140;2023-01-10T17:02:34;1.50;;;0.80;;
32593;SDS011;19018;49.046;9.140;2023-01-10T17:05:01;2.15;;;1.58;;
32593;SDS011;19018;49.046;9.140;2023-01-10T17:07:27;1.95;;;1.10;;
32593;SDS011;19018;49.046;9.140;2023-01-10T17:09:53;2.88;;;1.00;;
32593;SDS011;19018;49.046;9.140;2023-01-10T17:12:21;3.60;;;0.88;;
32593;SDS011;19018;49.046;9.140;2023-01-10T17:14:49;2.60;;;1.45;;
32593;SDS011;19018;49.046;9.140;2023-01-10T17:17:17;2.53;;;1.30;;
32593;SDS011;19018;49.046;9.140;2023-01-10T17:19:43;4.65;;;1.63;;
32593;SDS011;19018;49.046;9.140;2023-01-10T17:22:11;3.30;;;1.20;;
32593;SDS011;19018;49.046;9.140;2023-01-10T17:24:41;2.13;;;1.20;;
32593;SDS011;19018;49.046;9.140;2023-01-10T17:28:08;2.00;;;1.30;;
32593;SDS011;19018;49.046;9.140;2023-01-10T17:30:34;1.90;;;1.35;;
32593;SDS011;19018;49.046;9.140;2023-01-10T17:33:03;1.10;;;0.90;;
32593;SDS011;19018;49.046;9.140;2023-01-10T17:35:37;2.55;;;1.10;;
32593;SDS011;19018;49.046;9.140;2023-01-10T17:38:04;2.83;;;1.25;;
32593;SDS011;19018;49.046;9.140;2023-01-10T17:40:32;2.05;;;1.38;;
32593;SDS011;19018;49.046;9.140;2023-01-10T17:42:58;2.85;;;1.38;;
32593;SDS011;19018;49.046;9.140;2023-01-10T17:45:23;2.03;;;1.35;;
32593;SDS011;19018;49.046;9.140;2023-01-10T17:47:49;2.13;;;1.33;;
32593;SDS011;19018;49.046;9.140;2023-01-10T17:50:17;2.95;;;1.48;;
32593;SDS011;19018;49.046;9.140;2023-01-10T17:52:43;3.97;;;1.80;;
32593;SDS011;19018;49.046;9.140;2023-01-10T17:55:09;2.38;;;1.50;;
32593;SDS011;19018;49.046;9.140;2023-01-10T17:57:36;2.63;;;1.50;;
32593;SDS011;19018;49.046;9.140;2023-01-10T18:00:04;4.32;;;2.70;;
32593;SDS011;19018;49.046;9.140;2023-01-10T18:02:38;3.20;;;1.65;;
32593;SDS011;19018;49.046;9.140;2023-01-10T18:05:24;2.80;;;1.30;;
32593;SDS011;19018;49.046;9.140;2023-01-10T18:07:49;4.40;;;2.15;;
32593;SDS011;19018;49.046;9.140;2023-01-10T18:10:18;1.83;;;1.38;;
32593;SDS011;19018;49.046;9.140;2023-01-10T18:12:45;3.00;;;2.15;;
32593;SDS011;19018;49.046;9.140;2023-01-10T18:15:13;6.05;;;3.17;;
32593;SDS011;19018;49.046;9.140;2023-01-10T18:17:39;3.95;;;3.15;;
32593;SDS011;19018;49.046;9.140;2023-01-10T18:20:20;4.63;;;2.70;;
32593;SDS011;19018;49.046;9.140;2023-01-10T18:22:49;3.25;;;2.10;;
32593;SDS011;19018;49.046;9.140;2023-01-10T18:25:34;2.30;;;1.88;;
32593;SDS011;19018;49.046;9.140;2023-01-10T18:28:03;3.67;;;1.75;;
32593;SDS011;19018;49.046;9.140;2023-01-10T18:30:49;4.07;;;2.17;;
32593;SDS011;19018;49.046;9.140;2023-01-10T18:33:15;4.57;;;1.75;;
32593;SDS011;19018;49.046;9.140;2023-01-10T18:35:45;5.57;;;2.30;;
32593;SDS011;19018;49.046;9.140;2023-01-10T18:38:17;2.67;;;1.80;;
32593;SDS011;19018;49.046;9.140;2023-01-10T18:40:43;5.65;;;2.50;;
32593;SDS011;19018;49.046;9.140;2023-01-10T18:43:11;3.95;;;2.28;;
32593;SDS011;19018;49.046;9.140;2023-01-10T18:45:59;2.00;;;1.73;;
32593;SDS011;19018;49.046;9.140;2023-01-10T18:49:07;3.40;;;1.85;;